createdAt,value
2018-07-30T00:00:47.824Z,100761.00
2018-07-30T00:05:51.916Z,100756.00
2018-07-30T00:10:55.965Z,100763.00
2018-07-30T00:16:00.045Z,100767.00
2018-07-30T00:21:04.096Z,100765.00
2018-07-30T00:26:08.268Z,100767.00
2018-07-30T00:31:12.104Z,100763.00
2018-07-30T00:36:16.316Z,100775.00
2018-07-30T00:41:20.380Z,100780.00
2018-07-30T00:46:24.441Z,100776.00
2018-07-30T00:51:28.524Z,100763.00
2018-07-30T00:56:32.596Z,100771.00
2018-07-30T01:01:36.657Z,100768.00
2018-07-30T01:06:40.499Z,100769.00
2018-07-30T01:11:44.400Z,100776.00
2018-07-30T01:16:48.226Z,100775.00
2018-07-30T01:21:52.310Z,100767.00
2018-07-30T01:26:56.375Z,100768.00
2018-07-30T01:32:00.428Z,100762.00
2018-07-30T01:37:04.679Z,100762.00
2018-07-30T01:42:08.751Z,100751.00
2018-07-30T01:47:12.805Z,100754.00
2018-07-30T01:52:16.696Z,100755.00
2018-07-30T01:57:20.760Z,100757.00
2018-07-30T02:02:24.829Z,100756.00
2018-07-30T02:07:28.931Z,100769.00
2018-07-30T02:12:32.990Z,100778.00
2018-07-30T02:17:37.086Z,100781.00
2018-07-30T02:22:41.141Z,100780.00
2018-07-30T02:27:44.961Z,100777.00
2018-07-30T02:32:49.081Z,100783.00
2018-07-30T02:37:53.332Z,100786.00
2018-07-30T02:42:57.155Z,100784.00
2018-07-30T02:48:00.980Z,100795.00
2018-07-30T02:53:05.113Z,100795.00
2018-07-30T02:58:09.641Z,100793.00
2018-07-30T03:03:13.716Z,100787.00
2018-07-30T03:08:17.808Z,100791.00
2018-07-30T03:13:22.439Z,100791.00
2018-07-30T03:18:26.525Z,100794.00
2018-07-30T03:23:30.352Z,100795.00
2018-07-30T03:28:34.428Z,100786.00
2018-07-30T03:33:38.498Z,100789.00
2018-07-30T03:38:42.413Z,100795.00
2018-07-30T03:43:46.486Z,100795.00
2018-07-30T03:48:50.324Z,100804.00
2018-07-30T03:53:54.378Z,100803.00
2018-07-30T03:58:58.483Z,100806.00
2018-07-30T04:04:02.533Z,100820.00
2018-07-30T04:09:08.454Z,100822.00
2018-07-30T04:14:12.502Z,100822.00
2018-07-30T04:19:16.697Z,100832.00
2018-07-30T04:24:20.747Z,100836.00
2018-07-30T04:29:24.825Z,100836.00
2018-07-30T04:34:28.921Z,100837.00
2018-07-30T04:39:32.983Z,100841.00
2018-07-30T04:44:37.039Z,100844.00
2018-07-30T04:49:40.862Z,100847.00
2018-07-30T04:54:44.915Z,100847.00
2018-07-30T04:59:48.970Z,100844.00
2018-07-30T05:04:53.118Z,100838.00
2018-07-30T05:09:57.230Z,100832.00
2018-07-30T05:15:01.034Z,100839.00
2018-07-30T05:20:05.333Z,100845.00
2018-07-30T05:25:09.418Z,100846.00
2018-07-30T05:30:13.541Z,100851.00
2018-07-30T05:35:17.666Z,100853.00
2018-07-30T05:40:21.714Z,100853.00
2018-07-30T05:45:25.774Z,100857.00
2018-07-30T05:50:29.835Z,100859.00
2018-07-30T05:55:34.552Z,100852.00
2018-07-30T06:00:38.590Z,100848.00
2018-07-30T06:05:42.641Z,100858.00
2018-07-30T06:10:46.698Z,100865.00
2018-07-30T06:15:50.719Z,100870.00
2018-07-30T06:20:54.797Z,100869.00
2018-07-30T06:25:58.580Z,100871.00
2018-07-30T06:31:02.641Z,100877.00
2018-07-30T06:36:06.686Z,100869.00
2018-07-30T06:41:10.504Z,100873.00
2018-07-30T06:46:14.336Z,100883.00
2018-07-30T06:51:18.382Z,100889.00
2018-07-30T06:56:22.430Z,100884.00
2018-07-30T07:01:26.483Z,100880.00
2018-07-30T07:06:30.524Z,100891.00
2018-07-30T07:11:34.558Z,100896.00
2018-07-30T07:16:38.932Z,100906.00
2018-07-30T07:21:42.980Z,100907.00
2018-07-30T07:26:47.032Z,100914.00
2018-07-30T07:31:51.072Z,100912.00
2018-07-30T07:36:55.139Z,100921.00
2018-07-30T07:41:59.206Z,100924.00
2018-07-30T07:47:03.240Z,100931.00
2018-07-30T07:52:07.287Z,100934.00
2018-07-30T07:57:11.339Z,100930.00
2018-07-30T08:02:15.386Z,100940.00
2018-07-30T08:07:19.421Z,100924.00
2018-07-30T08:12:23.466Z,100925.00
2018-07-30T08:17:27.599Z,100918.00
2018-07-30T08:22:31.638Z,100922.00
2018-07-30T08:27:35.670Z,100919.00
2018-07-30T08:32:39.706Z,100924.00
2018-07-30T08:37:44.307Z,100921.00
2018-07-30T08:42:48.375Z,100918.00
2018-07-30T08:47:52.427Z,100913.00
2018-07-30T08:52:56.222Z,100915.00
2018-07-30T08:58:00.279Z,100920.00
2018-07-30T09:03:04.304Z,100919.00
2018-07-30T09:08:08.372Z,100913.00
2018-07-30T09:13:12.434Z,100917.00
2018-07-30T09:18:16.490Z,100931.00
2018-07-30T09:23:20.277Z,100919.00
2018-07-30T09:28:24.070Z,100920.00
2018-07-30T09:33:28.105Z,100911.00
2018-07-30T09:38:32.259Z,100934.00
2018-07-30T09:43:36.610Z,100917.00
2018-07-30T09:48:40.401Z,100907.00
2018-07-30T09:53:44.435Z,100903.00
2018-07-30T09:58:48.470Z,100892.00
2018-07-30T10:03:52.821Z,100893.00
2018-07-30T10:08:56.927Z,100891.00
2018-07-30T10:14:00.739Z,100878.00
2018-07-30T10:19:04.796Z,100871.00
2018-07-30T10:24:08.908Z,100860.00
2018-07-30T10:29:12.956Z,100863.00
2018-07-30T10:34:16.794Z,100858.00
2018-07-30T10:39:20.610Z,100845.00
2018-07-30T10:44:24.430Z,100836.00
2018-07-30T10:49:28.274Z,100830.00
2018-07-30T10:54:32.311Z,100829.00
2018-07-30T10:59:36.531Z,100824.00
2018-07-30T11:04:42.666Z,100822.00
2018-07-30T11:09:46.511Z,100807.00
2018-07-30T11:14:50.605Z,100798.00
2018-07-30T11:19:54.714Z,100802.00
2018-07-30T11:24:58.565Z,100803.00
2018-07-30T11:30:02.401Z,100799.00
2018-07-30T11:35:06.446Z,100803.00
2018-07-30T11:40:11.382Z,100803.00
2018-07-30T11:45:15.221Z,100794.00
2018-07-30T11:50:19.290Z,100792.00
2018-07-30T11:55:23.114Z,100797.00
2018-07-30T12:00:27.154Z,100794.00
2018-07-30T12:05:30.953Z,100784.00
2018-07-30T12:10:34.753Z,100778.00
2018-07-30T12:15:38.811Z,100777.00
2018-07-30T12:20:42.641Z,100771.00
2018-07-30T12:25:46.693Z,100766.00
2018-07-30T12:30:50.744Z,100758.00
2018-07-30T12:35:54.553Z,100769.00
2018-07-30T12:40:58.613Z,100769.00
2018-07-30T12:46:02.750Z,100771.00
2018-07-30T12:51:06.567Z,100764.00
2018-07-30T12:56:10.640Z,100754.00
2018-07-30T13:01:14.502Z,100745.00
2018-07-30T13:06:18.327Z,100745.00
2018-07-30T13:11:22.122Z,100745.00
2018-07-30T13:16:25.940Z,100739.00
2018-07-30T13:21:29.786Z,100733.00
2018-07-30T13:26:34.006Z,100733.00
2018-07-30T13:31:37.969Z,100732.00
2018-07-30T13:36:42.058Z,100723.00
2018-07-30T13:41:45.929Z,100724.00
2018-07-30T13:46:50.007Z,100721.00
2018-07-30T13:51:54.060Z,100721.00
2018-07-30T13:56:58.278Z,100717.00
2018-07-30T14:02:02.352Z,100720.00
2018-07-30T14:07:06.167Z,100715.00
2018-07-30T14:12:10.455Z,100716.00
2018-07-30T14:17:14.265Z,100707.00
2018-07-30T14:22:18.509Z,100717.00
2018-07-30T14:27:22.337Z,100715.00
2018-07-30T14:32:26.415Z,100716.00
2018-07-30T14:37:30.213Z,100710.00
2018-07-30T14:42:34.380Z,100709.00
2018-07-30T14:47:38.468Z,100700.00
2018-07-30T14:52:42.378Z,100698.00
2018-07-30T14:57:46.421Z,100686.00
2018-07-30T15:02:50.476Z,100685.00
2018-07-30T15:07:55.811Z,100679.00
2018-07-30T15:12:59.887Z,100672.00
2018-07-30T15:18:03.985Z,100675.00
2018-07-30T15:23:07.821Z,100673.00
2018-07-30T15:28:11.867Z,100672.00
2018-07-30T15:33:15.931Z,100670.00
2018-07-30T15:38:20.054Z,100664.00
2018-07-30T15:43:24.124Z,100664.00
2018-07-30T15:48:27.961Z,100663.00
2018-07-30T15:53:32.046Z,100663.00
2018-07-30T15:58:35.962Z,100660.00
2018-07-30T16:03:39.769Z,100662.00
2018-07-30T16:08:43.605Z,100664.00
2018-07-30T16:13:47.414Z,100654.00
2018-07-30T16:18:51.732Z,100651.00
2018-07-30T16:23:55.590Z,100651.00
2018-07-30T16:28:59.406Z,100655.00
2018-07-30T16:34:03.450Z,100655.00
2018-07-30T16:39:09.246Z,100656.00
2018-07-30T16:44:13.407Z,100655.00
2018-07-30T16:49:17.479Z,100662.00
2018-07-30T16:54:21.532Z,100661.00
2018-07-30T16:59:25.818Z,100662.00
2018-07-30T17:04:29.709Z,100662.00
2018-07-30T17:09:33.758Z,100670.00
2018-07-30T17:14:37.553Z,100673.00
2018-07-30T17:19:47.900Z,100677.00
2018-07-30T17:24:51.969Z,100678.00
2018-07-30T17:29:56.137Z,100681.00
2018-07-30T17:34:59.852Z,100677.00
2018-07-30T17:40:04.793Z,100679.00
2018-07-30T17:45:12.356Z,100677.00
2018-07-30T17:50:16.161Z,100680.00
2018-07-30T17:55:20.224Z,100678.00
2018-07-30T18:00:24.110Z,100678.00
2018-07-30T18:05:28.242Z,100683.00
2018-07-30T18:10:32.330Z,100685.00
2018-07-30T18:15:36.132Z,100693.00
2018-07-30T18:20:40.165Z,100695.00
2018-07-30T18:25:43.962Z,100701.00
2018-07-30T18:30:47.762Z,100701.00
2018-07-30T18:35:51.893Z,100702.00
2018-07-30T18:40:56.552Z,100704.00
2018-07-30T18:46:00.589Z,100702.00
2018-07-30T18:51:04.654Z,100706.00
2018-07-30T18:56:08.727Z,100707.00
2018-07-30T19:01:12.571Z,100708.00
2018-07-30T19:06:16.606Z,100719.00
2018-07-30T19:11:20.430Z,100731.00
2018-07-30T19:16:24.523Z,100736.00
2018-07-30T19:21:28.570Z,100739.00
2018-07-30T19:26:32.701Z,100746.00
2018-07-30T19:31:36.524Z,100753.00
2018-07-30T19:36:40.594Z,100754.00
2018-07-30T19:41:44.414Z,100755.00
2018-07-30T19:46:48.204Z,100763.00
2018-07-30T19:51:52.249Z,100770.00
2018-07-30T19:56:56.079Z,100780.00
2018-07-30T20:02:00.150Z,100783.00
2018-07-30T20:07:04.284Z,100778.00
2018-07-30T20:12:08.363Z,100786.00
2018-07-30T20:17:12.424Z,100793.00
2018-07-30T20:22:16.247Z,100792.00
2018-07-30T20:27:20.065Z,100797.00
2018-07-30T20:32:24.178Z,100805.00
2018-07-30T20:37:28.258Z,100802.00
2018-07-30T20:42:32.403Z,100806.00
2018-07-30T20:47:36.212Z,100807.00
2018-07-30T20:52:40.050Z,100810.00
2018-07-30T20:57:44.110Z,100816.00
2018-07-30T21:02:48.215Z,100820.00
2018-07-30T21:07:52.242Z,100819.00
2018-07-30T21:12:56.299Z,100817.00
2018-07-30T21:18:00.114Z,100817.00
2018-07-30T21:23:04.207Z,100824.00
2018-07-30T21:28:08.280Z,100828.00
2018-07-30T21:33:12.213Z,100832.00
2018-07-30T21:38:16.298Z,100832.00
2018-07-30T21:43:20.591Z,100828.00
2018-07-30T21:48:24.403Z,100835.00
2018-07-30T21:53:28.208Z,100834.00
2018-07-30T21:58:32.283Z,100835.00
2018-07-30T22:03:36.326Z,100838.00
2018-07-30T22:08:40.649Z,100838.00
2018-07-30T22:13:44.719Z,100839.00
2018-07-30T22:18:48.569Z,100844.00
2018-07-30T22:23:52.638Z,100843.00
2018-07-30T22:28:56.499Z,100848.00
2018-07-30T22:34:00.317Z,100843.00
2018-07-30T22:39:06.505Z,100842.00
2018-07-30T22:44:10.566Z,100844.00
2018-07-30T22:49:14.361Z,100843.00
2018-07-30T22:54:18.423Z,100844.00
2018-07-30T22:59:22.511Z,100844.00
2018-07-30T23:04:26.582Z,100845.00
2018-07-30T23:09:30.649Z,100851.00
2018-07-30T23:14:34.445Z,100854.00
2018-07-30T23:19:38.285Z,100851.00
2018-07-30T23:24:42.350Z,100854.00
2018-07-30T23:29:46.425Z,100851.00
2018-07-30T23:34:50.465Z,100855.00
2018-07-30T23:39:54.585Z,100846.00
2018-07-30T23:44:58.658Z,100846.00
2018-07-30T23:50:02.717Z,100842.00
2018-07-30T23:55:06.639Z,100838.00
